Portada
METAR-TAF:

METAR-TAF

Aeroports :

South Wood County Airport (Alexander Field)

Wisconsin Rapids, Wisconsin, Estats Units d'Amèrica

latitud: 44-21-33N, longitud: 089-50-13W, altitud: 311 m

Observació

L'informe es va fer fa 51 minuts, a les 06:54 UTC
Vent 6 kt del Est
Temperatura 17°C
Humitat 68%
Pressió 1021 hPa
Visibilitat: 16.1 km
Cel clar

METAR: KISW 250654Z AUTO 10006KT 10SM CLR 17/11 A3014 RMK AO2 SLP202 T01720111 TSNO

Hora: 02:45 (07:45 UTC)


TAF: manca

Observacions i pronòstics meteorològics de més de 4000 aeroports (METAR i TAF).

Les estacions disponibles són els punts grocs i vermells al mapa.

Posi el ratolí al punt desitjat per veure el nom de l'estació.

Feu clic per veure les observacions i els pronòstics meteorològics.

Per canviar el mapa: feu clic els botons verds amb una creu de color negre per apropar; al botó verd amb un guió per allunyar la imatge; o en les fletxes verdes per a mapes adjacents.


METAR-TAF: